Time;durP1;ratioP1;P1;durP2;ratioP2;P2;SDS_P1;SDS_P2;PMS_P1;PMS_P2;Temp;Humidity;BMP_temperature;BMP_pressure;BME280_temperature;BME280_humidity;BME280_pressure;Samples;Min_cycle;Max_cycle;Signal;HPM_P1;HPM_P2
2024/01/17 00:00:39;;;;;;;7.47;5.82;;;-0.20;99.90;;;;;;5100330;28;20024;-43
2024/01/17 00:03:06;;;;;;;9.00;6.10;;;-0.20;99.90;;;;;;5099094;28;20072;-43
2024/01/17 00:05:32;;;;;;;7.53;5.57;;;-0.20;99.90;;;;;;5099816;28;20047;-43
2024/01/17 00:07:58;;;;;;;9.98;6.38;;;-0.20;99.90;;;;;;5099656;28;20016;-43
2024/01/17 00:10:24;;;;;;;9.48;6.00;;;-0.30;99.90;;;;;;5099681;28;20040;-45
2024/01/17 00:12:50;;;;;;;10.88;6.28;;;-0.30;99.90;;;;;;5100132;28;20016;-43
2024/01/17 00:15:18;;;;;;;7.45;5.97;;;-0.30;99.90;;;;;;5099923;28;20035;-43
2024/01/17 00:17:44;;;;;;;7.47;5.38;;;-0.40;99.90;;;;;;5099706;28;20049;-43
2024/01/17 00:20:12;;;;;;;8.55;6.18;;;-0.40;99.90;;;;;;5099186;28;20031;-42
2024/01/17 00:22:37;;;;;;;9.95;6.28;;;-0.40;99.90;;;;;;5100221;28;20500;-43
2024/01/17 00:25:05;;;;;;;8.50;6.00;;;-0.40;99.90;;;;;;5098789;28;20634;-43
2024/01/17 00:27:30;;;;;;;7.95;5.40;;;-0.40;99.90;;;;;;5100924;28;20027;-43
2024/01/17 00:29:59;;;;;;;9.00;5.45;;;-0.40;99.90;;;;;;5100172;28;20028;-43
2024/01/17 00:32:25;;;;;;;8.93;6.65;;;-0.40;99.90;;;;;;5100492;28;20038;-42
2024/01/17 00:34:51;;;;;;;8.57;5.57;;;-0.40;99.90;;;;;;5099488;28;20032;-43
2024/01/17 00:37:17;;;;;;;9.15;6.30;;;-0.40;99.90;;;;;;5098225;28;20028;-43
2024/01/17 00:39:42;;;;;;;10.05;6.60;;;-0.50;99.90;;;;;;5097913;28;20081;-42
2024/01/17 00:42:08;;;;;;;8.30;6.43;;;-0.50;99.90;;;;;;5097954;28;20803;-42
2024/01/17 00:44:38;;;;;;;10.75;7.28;;;-0.50;99.90;;;;;;5098554;28;20023;-43
2024/01/17 00:47:04;;;;;;;13.55;7.30;;;-0.50;99.90;;;;;;5097302;28;20819;-42
2024/01/17 00:49:32;;;;;;;11.75;6.78;;;-0.50;99.90;;;;;;5097826;28;20027;-43
2024/01/17 00:51:58;;;;;;;9.23;7.05;;;-0.50;99.90;;;;;;5099218;28;20031;-44
2024/01/17 00:54:24;;;;;;;8.10;6.03;;;-0.60;99.90;;;;;;5098987;28;20035;-43
2024/01/17 00:56:49;;;;;;;10.77;6.25;;;-0.50;99.90;;;;;;5099680;28;20023;-44
2024/01/17 00:59:15;;;;;;;11.55;6.60;;;-0.60;99.90;;;;;;5098946;28;20020;-42
2024/01/17 01:01:41;;;;;;;9.07;5.95;;;-0.60;99.90;;;;;;5099325;28;20043;-44
2024/01/17 01:04:09;;;;;;;7.32;5.47;;;-0.60;99.90;;;;;;5099080;28;20038;-44
2024/01/17 01:06:35;;;;;;;13.68;6.80;;;-0.60;99.90;;;;;;5098903;28;20031;-43
2024/01/17 01:09:01;;;;;;;8.77;5.55;;;-0.60;99.90;;;;;;5099060;28;20052;-42
2024/01/17 01:11:30;;;;;;;7.05;5.60;;;-0.60;99.90;;;;;;5099943;28;20027;-44
2024/01/17 01:13:56;;;;;;;9.15;6.53;;;-0.60;99.90;;;;;;5097974;28;20068;-45
2024/01/17 01:16:21;;;;;;;7.95;5.43;;;-0.60;99.90;;;;;;5099097;28;20039;-43
2024/01/17 01:18:47;;;;;;;8.10;5.20;;;-0.60;99.90;;;;;;5100110;28;20040;-43
2024/01/17 01:21:14;;;;;;;8.82;5.47;;;-0.60;99.90;;;;;;5100889;28;20031;-43
2024/01/17 01:23:39;;;;;;;7.53;5.47;;;-0.60;99.90;;;;;;5104164;28;20079;-43
2024/01/17 01:26:05;;;;;;;9.55;6.30;;;-0.60;99.90;;;;;;5103433;28;20068;-43
2024/01/17 01:28:31;;;;;;;9.40;6.45;;;-0.60;99.90;;;;;;5103106;28;20036;-43
2024/01/17 01:30:56;;;;;;;8.38;6.50;;;-0.50;99.90;;;;;;5102676;28;20019;-43
2024/01/17 01:33:22;;;;;;;9.68;6.05;;;-0.50;99.90;;;;;;5103819;28;20024;-43
2024/01/17 01:35:48;;;;;;;9.52;5.50;;;-0.50;99.90;;;;;;5102045;28;20035;-44
2024/01/17 01:38:14;;;;;;;9.07;6.05;;;-0.60;99.90;;;;;;5102217;28;20776;-43
2024/01/17 01:40:40;;;;;;;8.88;6.63;;;-0.60;99.90;;;;;;5102692;28;20023;-44
2024/01/17 01:43:23;;;;;;;11.05;6.65;;;-0.60;99.90;;;;;;5100944;28;20011;-43
2024/01/17 01:45:57;;;;;;;7.68;5.82;;;-0.60;99.90;;;;;;5101613;28;20748;-44
2024/01/17 01:48:23;;;;;;;8.02;5.60;;;-0.70;99.90;;;;;;5101996;28;20474;-43
2024/01/17 01:50:49;;;;;;;8.23;5.65;;;-0.70;99.90;;;;;;5101873;28;20027;-43
2024/01/17 01:53:14;;;;;;;8.20;5.00;;;-0.80;99.90;;;;;;5101276;28;20024;-43
2024/01/17 01:55:40;;;;;;;6.90;5.55;;;-0.80;99.90;;;;;;5102250;28;20139;-43
2024/01/17 01:58:08;;;;;;;10.00;5.43;;;-0.80;99.90;;;;;;5102304;28;20047;-42
2024/01/17 02:00:34;;;;;;;11.25;6.55;;;-0.80;99.90;;;;;;5102795;28;20067;-43
2024/01/17 02:03:00;;;;;;;11.25;6.18;;;-0.90;99.90;;;;;;5101417;28;20134;-44
2024/01/17 02:05:25;;;;;;;8.73;6.55;;;-0.90;99.90;;;;;;5102756;28;20043;-44
2024/01/17 02:07:51;;;;;;;7.38;5.65;;;-0.90;99.90;;;;;;5102419;28;20016;-43
2024/01/17 02:10:17;;;;;;;8.95;5.30;;;-0.90;99.90;;;;;;5101582;28;20154;-43
2024/01/17 02:12:43;;;;;;;6.93;5.40;;;-0.90;99.90;;;;;;5102373;28;20019;-43
2024/01/17 02:15:09;;;;;;;8.10;5.30;;;-1.00;99.90;;;;;;5101430;28;20043;-44
2024/01/17 02:17:35;;;;;;;8.32;5.47;;;-1.00;99.90;;;;;;5101801;28;20087;-43
2024/01/17 02:20:01;;;;;;;8.43;5.13;;;-1.00;99.90;;;;;;5101660;28;20020;-43
2024/01/17 02:22:27;;;;;;;8.85;5.75;;;-1.00;99.90;;;;;;5102200;28;20027;-43
2024/01/17 02:24:52;;;;;;;7.63;5.30;;;-1.00;99.90;;;;;;5102120;28;20031;-43
2024/01/17 02:27:18;;;;;;;6.73;5.37;;;-1.10;99.90;;;;;;5101968;28;20018;-43
2024/01/17 02:29:46;;;;;;;9.37;5.60;;;-1.10;99.90;;;;;;5102420;28;20726;-44
2024/01/17 02:32:11;;;;;;;9.30;5.40;;;-1.10;99.90;;;;;;5100371;28;20481;-44
2024/01/17 02:34:38;;;;;;;8.68;5.22;;;-1.10;99.90;;;;;;5101888;28;20032;-44
2024/01/17 02:37:08;;;;;;;7.53;4.97;;;-1.10;99.90;;;;;;5101753;28;20031;-44
2024/01/17 02:39:33;;;;;;;8.23;5.80;;;-1.10;99.90;;;;;;5101151;28;20039;-44
2024/01/17 02:41:59;;;;;;;10.40;5.88;;;-1.10;99.90;;;;;;5101471;28;20031;-44
2024/01/17 02:44:25;;;;;;;7.95;5.45;;;-1.10;99.90;;;;;;5102156;28;20042;-43
2024/01/17 02:46:50;;;;;;;8.80;6.07;;;-1.20;99.90;;;;;;5101280;28;20019;-43
2024/01/17 02:49:19;;;;;;;7.60;5.45;;;-1.10;99.90;;;;;;5101442;28;20034;-44
2024/01/17 02:51:45;;;;;;;6.68;5.38;;;-1.20;99.90;;;;;;5101958;28;20039;-43
2024/01/17 02:54:11;;;;;;;8.55;5.82;;;-1.10;99.90;;;;;;5101209;28;20031;-43
2024/01/17 02:56:36;;;;;;;7.03;5.50;;;-1.10;99.90;;;;;;5102194;28;20036;-43
2024/01/17 02:59:02;;;;;;;8.35;5.63;;;-1.20;99.90;;;;;;5100562;28;20534;-45
2024/01/17 03:01:27;;;;;;;7.63;4.40;;;-1.20;99.90;;;;;;5102001;28;20150;-43
2024/01/17 03:03:53;;;;;;;8.05;5.00;;;-1.20;99.90;;;;;;5101580;28;20584;-43
2024/01/17 03:06:18;;;;;;;8.48;5.28;;;-1.20;99.90;;;;;;5100981;28;20616;-42
2024/01/17 03:08:44;;;;;;;7.65;4.90;;;-1.20;99.90;;;;;;5101412;28;20103;-43
2024/01/17 03:11:10;;;;;;;8.68;5.78;;;-1.20;99.90;;;;;;5100215;28;20058;-43
2024/01/17 03:13:35;;;;;;;5.82;4.55;;;-1.20;99.90;;;;;;5101642;28;20036;-43
2024/01/17 03:16:01;;;;;;;8.82;5.30;;;-1.30;99.90;;;;;;5100938;28;20046;-43
2024/01/17 03:18:26;;;;;;;6.03;4.97;;;-1.20;99.90;;;;;;5101428;28;20024;-44
2024/01/17 03:20:52;;;;;;;10.00;5.43;;;-1.20;99.90;;;;;;5100065;28;20038;-43
2024/01/17 03:23:18;;;;;;;8.50;5.70;;;-1.30;99.90;;;;;;5100956;28;20035;-43
2024/01/17 03:25:43;;;;;;;7.38;5.57;;;-1.20;99.90;;;;;;5101348;28;20142;-44
2024/01/17 03:28:09;;;;;;;7.25;4.93;;;-1.20;99.90;;;;;;5099478;28;20023;-44
2024/01/17 03:30:36;;;;;;;6.68;4.93;;;-1.20;99.90;;;;;;5101141;28;20524;-43
2024/01/17 03:33:03;;;;;;;7.20;5.33;;;-1.20;99.90;;;;;;5100824;28;20019;-43
2024/01/17 03:35:28;;;;;;;9.45;5.55;;;-1.20;99.90;;;;;;5100106;28;20028;-43
2024/01/17 03:37:54;;;;;;;10.02;5.65;;;-1.20;99.90;;;;;;5101200;28;20029;-44
2024/01/17 03:40:20;;;;;;;8.55;4.88;;;-1.20;99.90;;;;;;5100407;28;20716;-43
2024/01/17 03:42:45;;;;;;;6.75;4.47;;;-1.20;99.90;;;;;;5100227;28;20019;-43
2024/01/17 03:45:12;;;;;;;7.00;4.45;;;-1.20;99.90;;;;;;5100188;28;20070;-43
2024/01/17 03:47:38;;;;;;;7.10;5.15;;;-1.20;99.90;;;;;;5101093;28;20024;-43
2024/01/17 03:50:04;;;;;;;7.53;5.65;;;-1.20;99.90;;;;;;5098884;28;20027;-43
2024/01/17 03:52:30;;;;;;;7.72;5.40;;;-1.20;99.90;;;;;;5100524;28;20027;-42
2024/01/17 03:54:56;;;;;;;7.20;4.78;;;-1.20;99.90;;;;;;5100033;28;20040;-43
2024/01/17 03:57:21;;;;;;;6.32;4.60;;;-1.20;99.90;;;;;;5096195;28;20023;-44
2024/01/17 03:59:47;;;;;;;7.60;4.57;;;-1.20;99.90;;;;;;5100554;28;20071;-44
2024/01/17 04:02:12;;;;;;;6.70;4.70;;;-1.20;99.90;;;;;;5098657;28;20085;-44
2024/01/17 04:04:41;;;;;;;7.53;5.07;;;-1.20;99.90;;;;;;5100559;28;20525;-43
2024/01/17 04:07:10;;;;;;;7.88;5.10;;;-1.20;99.90;;;;;;5100057;28;20755;-43
2024/01/17 04:09:36;;;;;;;7.82;5.10;;;-1.20;99.90;;;;;;5099816;28;20757;-43
2024/01/17 04:12:02;;;;;;;8.63;5.63;;;-1.20;99.90;;;;;;5099828;28;20019;-44
2024/01/17 04:14:31;;;;;;;6.78;4.97;;;-1.20;99.90;;;;;;5099739;28;20019;-44
2024/01/17 04:16:57;;;;;;;7.97;5.68;;;-1.20;99.90;;;;;;5098848;28;20023;-45
2024/01/17 04:19:22;;;;;;;9.63;5.32;;;-1.20;99.90;;;;;;5100025;28;20023;-45
2024/01/17 04:21:48;;;;;;;8.48;5.32;;;-1.20;99.90;;;;;;5099654;27;20020;-43
2024/01/17 04:24:13;;;;;;;7.75;5.35;;;-1.20;99.90;;;;;;5098449;28;20530;-44
2024/01/17 04:26:39;;;;;;;6.65;5.30;;;-1.20;99.90;;;;;;5099715;28;20023;-44
2024/01/17 04:29:05;;;;;;;7.10;4.72;;;-1.20;99.90;;;;;;5099023;28;20030;-43
2024/01/17 04:31:31;;;;;;;7.57;5.05;;;-1.20;99.90;;;;;;5099485;28;20467;-43
2024/01/17 04:33:59;;;;;;;8.13;5.10;;;-1.20;99.90;;;;;;5100226;28;20023;-44
2024/01/17 04:36:27;;;;;;;7.13;5.35;;;-1.20;99.90;;;;;;5100030;28;20035;-44
2024/01/17 04:38:53;;;;;;;7.47;5.28;;;-1.20;99.90;;;;;;5099074;28;20046;-43
2024/01/17 04:41:20;;;;;;;7.53;5.15;;;-1.20;99.90;;;;;;5100127;28;20019;-44
2024/01/17 04:43:46;;;;;;;6.60;5.13;;;-1.20;99.90;;;;;;5100273;28;20126;-44
2024/01/17 04:46:13;;;;;;;11.32;5.32;;;-1.20;99.90;;;;;;5098814;28;20748;-43
2024/01/17 04:48:42;;;;;;;8.25;5.55;;;-1.20;99.90;;;;;;5100102;28;20050;-43
2024/01/17 04:51:09;;;;;;;7.97;5.90;;;-1.20;99.90;;;;;;5099696;28;20189;-43
2024/01/17 04:53:37;;;;;;;6.78;5.38;;;-1.20;99.90;;;;;;5098620;28;20034;-43
2024/01/17 04:56:05;;;;;;;7.57;5.85;;;-1.20;99.90;;;;;;5102025;28;20114;-44
2024/01/17 04:58:31;;;;;;;7.20;5.07;;;-1.20;99.90;;;;;;5103270;28;20031;-42
2024/01/17 05:01:00;;;;;;;6.50;4.90;;;-1.20;99.90;;;;;;5103050;28;20038;-42
2024/01/17 05:03:27;;;;;;;9.50;5.38;;;-1.20;99.90;;;;;;5103970;28;20027;-43
2024/01/17 05:05:53;;;;;;;8.00;5.55;;;-1.20;99.90;;;;;;5103306;28;20039;-43
2024/01/17 05:08:19;;;;;;;7.88;5.57;;;-1.20;99.90;;;;;;5103690;28;20024;-44
2024/01/17 05:10:45;;;;;;;8.77;5.38;;;-1.20;99.90;;;;;;5104220;28;20474;-44
2024/01/17 05:13:12;;;;;;;6.32;5.07;;;-1.20;99.90;;;;;;5101962;28;20837;-44
2024/01/17 05:15:38;;;;;;;6.82;5.25;;;-1.20;99.90;;;;;;5103694;28;20039;-45
2024/01/17 05:18:05;;;;;;;9.80;5.75;;;-1.30;99.90;;;;;;5103357;28;20153;-44
2024/01/17 05:20:31;;;;;;;7.63;5.68;;;-1.20;99.90;;;;;;5102883;28;20473;-44
2024/01/17 05:22:56;;;;;;;10.23;5.53;;;-1.30;99.90;;;;;;5102966;28;20024;-43
2024/01/17 05:25:22;;;;;;;6.97;5.00;;;-1.30;99.90;;;;;;5103079;28;20032;-43
2024/01/17 05:27:51;;;;;;;9.02;6.05;;;-1.20;99.90;;;;;;5102859;28;20072;-43
2024/01/17 05:30:18;;;;;;;9.43;5.28;;;-1.30;99.90;;;;;;5102838;28;20023;-44
2024/01/17 05:32:44;;;;;;;7.70;5.68;;;-1.30;99.90;;;;;;5103646;28;20521;-44
2024/01/17 05:35:10;;;;;;;7.50;4.50;;;-1.30;99.90;;;;;;5101642;28;20105;-42
2024/01/17 05:37:38;;;;;;;7.70;5.38;;;-1.30;99.90;;;;;;5103305;28;20928;-43
2024/01/17 05:40:10;;;;;;;8.35;5.68;;;-1.30;99.90;;;;;;5102880;28;20031;-44
2024/01/17 05:42:37;;;;;;;7.38;5.53;;;-1.20;99.90;;;;;;5103080;28;20356;-44
2024/01/17 05:45:03;;;;;;;8.43;5.57;;;-1.30;99.90;;;;;;5102888;28;20052;-43
2024/01/17 05:47:30;;;;;;;5.70;4.75;;;-1.20;99.90;;;;;;5104051;28;20672;-43
2024/01/17 05:49:56;;;;;;;9.18;4.97;;;-1.30;99.90;;;;;;5101380;28;20024;-43
2024/01/17 05:52:25;;;;;;;7.78;5.55;;;-1.30;99.90;;;;;;5102561;28;20064;-42
2024/01/17 05:54:51;;;;;;;5.38;4.10;;;-1.30;99.90;;;;;;5101245;28;20489;-43
2024/01/17 05:57:17;;;;;;;7.87;4.60;;;-1.30;99.90;;;;;;5102053;28;20123;-44
2024/01/17 05:59:42;;;;;;;6.32;4.95;;;-1.30;99.90;;;;;;5102272;28;20027;-45
2024/01/17 06:02:08;;;;;;;6.68;4.95;;;-1.30;99.90;;;;;;5101783;28;20108;-44
2024/01/17 06:04:33;;;;;;;7.85;5.13;;;-1.30;99.90;;;;;;5102205;28;20634;-44
2024/01/17 06:07:00;;;;;;;8.10;5.43;;;-1.30;99.90;;;;;;5101842;28;20031;-44
2024/01/17 06:09:26;;;;;;;7.70;4.88;;;-1.30;99.90;;;;;;5101431;28;20124;-45
2024/01/17 06:11:52;;;;;;;10.20;5.50;;;-1.30;99.90;;;;;;5102371;28;20032;-44
2024/01/17 06:14:17;;;;;;;10.67;5.67;;;-1.30;99.90;;;;;;5102621;28;20035;-43
2024/01/17 06:16:44;;;;;;;9.30;5.70;;;-1.30;99.90;;;;;;5101693;28;20097;-43
2024/01/17 06:19:10;;;;;;;8.30;5.43;;;-1.30;99.90;;;;;;5101847;28;20032;-43
2024/01/17 06:21:36;;;;;;;8.10;5.70;;;-1.30;99.90;;;;;;5102170;28;20064;-44
2024/01/17 06:24:01;;;;;;;11.70;5.97;;;-1.30;99.90;;;;;;5101421;28;20034;-45
2024/01/17 06:26:27;;;;;;;9.35;6.22;;;-1.30;99.90;;;;;;5102080;28;20037;-43
2024/01/17 06:28:53;;;;;;;8.43;5.50;;;-1.30;99.90;;;;;;5102084;28;20591;-45
2024/01/17 06:31:24;;;;;;;8.75;6.38;;;-1.30;99.90;;;;;;5101199;28;20027;-44
2024/01/17 06:33:53;;;;;;;7.60;5.35;;;-1.30;99.90;;;;;;5101859;28;20028;-44
2024/01/17 06:36:18;;;;;;;8.83;6.07;;;-1.30;99.90;;;;;;5101524;28;20147;-44
2024/01/17 06:38:44;;;;;;;9.75;5.93;;;-1.30;99.90;;;;;;5101561;28;20509;-44
2024/01/17 06:41:13;;;;;;;9.00;5.53;;;-1.30;99.90;;;;;;5101557;28;20028;-45
2024/01/17 06:43:39;;;;;;;8.48;5.38;;;-1.30;99.90;;;;;;5101687;28;20020;-44
2024/01/17 06:46:04;;;;;;;9.18;5.90;;;-1.30;99.90;;;;;;5101198;28;20019;-45
2024/01/17 06:48:31;;;;;;;9.00;5.70;;;-1.30;99.90;;;;;;5101815;28;20035;-44
2024/01/17 06:50:57;;;;;;;7.78;5.40;;;-1.30;99.90;;;;;;5101188;28;20031;-43
2024/01/17 06:53:23;;;;;;;9.93;6.30;;;-1.30;99.90;;;;;;5103092;28;20087;-42
2024/01/17 06:55:49;;;;;;;9.18;6.28;;;-1.30;99.90;;;;;;5100064;28;20100;-44
2024/01/17 06:58:14;;;;;;;8.67;6.10;;;-1.30;99.90;;;;;;5100153;28;20031;-44
2024/01/17 07:00:41;;;;;;;10.40;6.37;;;-1.30;99.90;;;;;;5100804;28;20023;-43
2024/01/17 07:03:07;;;;;;;7.93;5.55;;;-1.30;99.90;;;;;;5100240;28;20028;-43
2024/01/17 07:05:33;;;;;;;8.73;6.10;;;-1.30;99.90;;;;;;5100228;28;20032;-44
2024/01/17 07:07:58;;;;;;;8.25;5.70;;;-1.30;99.90;;;;;;5100984;28;20057;-43
2024/01/17 07:10:24;;;;;;;7.50;5.43;;;-1.30;99.90;;;;;;5100990;28;20055;-43
2024/01/17 07:12:50;;;;;;;8.73;6.35;;;-1.30;99.90;;;;;;5100322;28;20059;-44
2024/01/17 07:15:17;;;;;;;10.75;5.93;;;-1.30;99.90;;;;;;5100054;28;20039;-44
2024/01/17 07:17:42;;;;;;;10.73;6.38;;;-1.40;99.90;;;;;;5100935;28;20020;-45
2024/01/17 07:20:10;;;;;;;8.77;5.82;;;-1.40;99.90;;;;;;5099312;28;20038;-44
2024/01/17 07:22:41;;;;;;;8.60;5.88;;;-1.30;99.90;;;;;;5100500;28;20024;-44
2024/01/17 07:25:09;;;;;;;7.93;6.17;;;-1.40;99.90;;;;;;5100675;28;20022;-43
2024/01/17 07:27:34;;;;;;;8.87;5.70;;;-1.30;99.90;;;;;;5099766;28;20031;-43
2024/01/17 07:30:00;;;;;;;8.32;5.63;;;-1.40;99.90;;;;;;5100178;28;20024;-43
2024/01/17 07:32:28;;;;;;;9.23;6.03;;;-1.40;99.90;;;;;;5100569;28;20153;-44
2024/01/17 07:34:54;;;;;;;11.80;7.00;;;-1.30;99.90;;;;;;5099588;28;20051;-44
2024/01/17 07:37:20;;;;;;;8.73;6.60;;;-1.30;99.90;;;;;;5099839;28;20023;-43
2024/01/17 07:39:45;;;;;;;10.87;7.03;;;-1.30;99.90;;;;;;5099733;28;20477;-44
2024/01/17 07:42:14;;;;;;;12.02;7.85;;;-1.30;99.90;;;;;;5098843;28;20359;-46
2024/01/17 07:44:40;;;;;;;10.47;7.00;;;-1.30;99.90;;;;;;5097530;28;20672;-44
2024/01/17 07:47:06;;;;;;;8.43;6.45;;;-1.30;99.90;;;;;;5097506;28;20024;-43
2024/01/17 07:49:37;;;;;;;10.93;7.20;;;-1.30;99.90;;;;;;5100000;28;20019;-43
2024/01/17 07:52:05;;;;;;;11.02;6.57;;;-1.30;99.90;;;;;;5099904;28;20028;-44
2024/01/17 07:54:32;;;;;;;10.55;7.15;;;-1.30;99.90;;;;;;5098581;28;20035;-44
2024/01/17 07:57:00;;;;;;;9.95;6.85;;;-1.30;99.90;;;;;;5099597;28;20195;-44
2024/01/17 07:59:27;;;;;;;8.95;6.30;;;-1.30;99.90;;;;;;5100736;28;20023;-44
2024/01/17 08:01:53;;;;;;;8.68;6.20;;;-1.30;99.90;;;;;;5100341;28;20034;-44
2024/01/17 08:04:19;;;;;;;12.17;6.57;;;-1.30;99.90;;;;;;5099598;28;20758;-44
2024/01/17 08:06:45;;;;;;;9.00;6.38;;;-1.20;99.90;;;;;;5100912;28;20031;-43
2024/01/17 08:09:26;;;;;;;12.23;7.47;;;-1.20;99.90;;;;;;5099233;28;20054;-43
2024/01/17 08:11:53;;;;;;;12.20;7.53;;;-1.20;99.90;;;;;;5100096;28;20035;-43
2024/01/17 08:14:19;;;;;;;10.20;7.30;;;-1.20;99.90;;;;;;5100125;28;20027;-45
2024/01/17 08:16:46;;;;;;;13.03;7.37;;;-1.20;99.90;;;;;;5099126;28;20490;-43
2024/01/17 08:19:12;;;;;;;13.90;8.10;;;-1.20;99.90;;;;;;5099031;28;20497;-43
2024/01/17 08:21:38;;;;;;;11.52;7.53;;;-1.10;99.90;;;;;;5088870;28;20035;-43
2024/01/17 08:24:06;;;;;;;8.88;7.10;;;-1.10;99.90;;;;;;5099241;28;20803;-43
2024/01/17 08:26:32;;;;;;;9.82;6.82;;;-1.10;99.90;;;;;;5100241;28;20878;-43
2024/01/17 08:28:58;;;;;;;10.67;7.63;;;-1.10;99.90;;;;;;5100353;28;20047;-43
2024/01/17 08:31:24;;;;;;;9.63;7.10;;;-1.10;99.90;;;;;;5099449;28;20024;-44
2024/01/17 08:33:50;;;;;;;11.83;7.70;;;-1.00;99.90;;;;;;5099844;28;20131;-44
2024/01/17 08:36:19;;;;;;;10.50;7.07;;;-1.00;99.90;;;;;;5099487;28;20074;-43
2024/01/17 08:38:44;;;;;;;10.83;7.07;;;-1.00;99.90;;;;;;5099942;28;20047;-43
2024/01/17 08:41:11;;;;;;;10.95;7.40;;;-0.90;99.90;;;;;;5098753;28;20542;-43
2024/01/17 08:43:36;;;;;;;14.80;7.30;;;-0.90;99.90;;;;;;5098909;28;20035;-44
2024/01/17 08:46:03;;;;;;;10.63;7.22;;;-0.90;99.90;;;;;;5098882;28;20024;-44
2024/01/17 08:48:29;;;;;;;9.95;7.28;;;-0.90;99.90;;;;;;5099360;28;20077;-43
2024/01/17 08:50:55;;;;;;;8.10;6.50;;;-0.80;99.90;;;;;;5098203;28;20031;-43
2024/01/17 08:53:21;;;;;;;10.95;6.63;;;-0.80;99.90;;;;;;5099367;28;20024;-43
2024/01/17 08:55:49;;;;;;;7.33;5.53;;;-0.80;99.90;;;;;;5099153;28;20818;-44
2024/01/17 08:58:15;;;;;;;7.65;5.60;;;-0.80;99.90;;;;;;5099051;28;20152;-43
2024/01/17 09:00:42;;;;;;;10.13;6.40;;;-0.80;99.90;;;;;;5099753;28;20548;-43
2024/01/17 09:03:11;;;;;;;7.63;5.53;;;-0.80;99.90;;;;;;5099842;28;20028;-43
2024/01/17 09:05:36;;;;;;;9.52;6.22;;;-0.80;99.90;;;;;;5098534;28;20819;-44
2024/01/17 09:08:03;;;;;;;9.82;6.03;;;-0.70;99.90;;;;;;5098465;28;20112;-44
2024/01/17 09:10:29;;;;;;;12.43;7.15;;;-0.70;99.90;;;;;;5098417;28;20047;-43
2024/01/17 09:12:55;;;;;;;7.90;5.70;;;-0.60;99.90;;;;;;5098521;28;20410;-43
2024/01/17 09:15:21;;;;;;;8.40;5.75;;;-0.60;99.90;;;;;;5099625;28;20035;-44
2024/01/17 09:17:46;;;;;;;8.85;6.18;;;-0.60;99.90;;;;;;5098891;28;20130;-44
2024/01/17 09:20:14;;;;;;;8.98;5.78;;;-0.60;99.90;;;;;;5098533;28;20027;-45
2024/01/17 09:22:40;;;;;;;8.23;5.75;;;-0.60;99.90;;;;;;5099365;28;20028;-43
2024/01/17 09:25:08;;;;;;;7.63;5.80;;;-0.50;99.90;;;;;;5099082;28;20416;-44
2024/01/17 09:27:34;;;;;;;7.90;6.28;;;-0.50;99.90;;;;;;5098935;28;20027;-43
2024/01/17 09:30:00;;;;;;;9.63;6.18;;;-0.50;99.90;;;;;;5099171;28;20036;-43
2024/01/17 09:32:28;;;;;;;10.15;6.65;;;-0.50;99.90;;;;;;5099330;28;20023;-43
2024/01/17 09:34:54;;;;;;;9.43;6.38;;;-0.40;99.90;;;;;;5098329;28;20629;-43
2024/01/17 09:37:20;;;;;;;10.20;6.60;;;-0.40;99.90;;;;;;5099324;28;20055;-44
2024/01/17 09:39:45;;;;;;;8.85;6.38;;;-0.40;99.90;;;;;;5098492;28;20050;-45
2024/01/17 09:42:13;;;;;;;8.02;5.97;;;-0.40;99.90;;;;;;5100614;28;20064;-44
2024/01/17 09:44:39;;;;;;;9.57;6.18;;;-0.30;99.90;;;;;;5103473;28;20035;-44
2024/01/17 09:47:05;;;;;;;7.95;5.50;;;-0.30;99.90;;;;;;5099580;28;20031;-45
2024/01/17 09:49:32;;;;;;;11.20;6.15;;;-0.30;99.90;;;;;;5101655;28;20016;-44
2024/01/17 09:52:04;;;;;;;10.52;6.47;;;-0.20;99.90;;;;;;5100949;28;20031;-44
2024/01/17 09:54:35;;;;;;;11.77;6.53;;;-0.20;99.90;;;;;;5100516;28;20103;-44
2024/01/17 09:57:04;;;;;;;9.02;6.43;;;-0.10;99.90;;;;;;5101290;28;20042;-44
2024/01/17 09:59:33;;;;;;;11.95;8.45;;;-0.10;99.90;;;;;;5098609;28;20016;-43
2024/01/17 10:02:00;;;;;;;13.93;8.65;;;-0.10;99.90;;;;;;5100080;28;20039;-44
2024/01/17 10:04:26;;;;;;;13.82;8.43;;;-0.10;99.90;;;;;;5102447;28;20519;-43
2024/01/17 10:06:55;;;;;;;11.60;8.38;;;0.00;99.90;;;;;;5102138;28;20573;-43
2024/01/17 10:09:24;;;;;;;12.70;8.55;;;0.00;99.90;;;;;;5101765;28;20082;-43
2024/01/17 10:11:53;;;;;;;13.25;9.23;;;0.00;99.90;;;;;;5102749;28;20016;-44
2024/01/17 10:14:21;;;;;;;11.52;7.80;;;0.10;99.90;;;;;;5101923;28;20124;-44
2024/01/17 10:16:48;;;;;;;13.13;8.48;;;0.10;99.90;;;;;;5081823;28;20130;-43
2024/01/17 10:19:15;;;;;;;13.18;8.10;;;0.10;99.90;;;;;;5096295;28;20160;-43
2024/01/17 10:21:43;;;;;;;10.57;7.90;;;0.10;99.90;;;;;;5102607;28;20126;-43
2024/01/17 10:24:10;;;;;;;11.05;7.70;;;0.20;99.90;;;;;;5101384;28;20028;-43
2024/01/17 10:26:39;;;;;;;9.10;6.90;;;0.20;99.90;;;;;;5102772;28;20027;-47
2024/01/17 10:29:04;;;;;;;8.55;7.07;;;0.20;99.90;;;;;;5101287;28;20030;-43
2024/01/17 10:31:30;;;;;;;8.90;6.65;;;0.20;99.90;;;;;;5102051;28;20020;-43
2024/01/17 10:33:59;;;;;;;9.90;7.28;;;0.30;99.90;;;;;;5102407;28;20119;-43
2024/01/17 10:36:25;;;;;;;9.35;7.18;;;0.30;99.90;;;;;;5102064;28;20562;-44
2024/01/17 10:38:50;;;;;;;11.95;6.80;;;0.40;99.90;;;;;;5102115;28;20031;-42
2024/01/17 10:41:16;;;;;;;10.13;6.75;;;0.40;99.90;;;;;;5102420;28;20538;-42
2024/01/17 10:43:56;;;;;;;9.90;7.43;;;0.40;99.90;;;;;;5102242;28;20034;-42
2024/01/17 10:46:25;;;;;;;10.40;6.85;;;0.40;99.90;;;;;;5102847;28;20031;-43
2024/01/17 10:48:51;;;;;;;11.82;7.85;;;0.40;99.90;;;;;;5102764;28;20016;-42
2024/01/17 10:51:24;;;;;;;11.95;7.88;;;0.40;99.90;;;;;;5101228;28;20060;-44
2024/01/17 10:53:54;;;;;;;12.40;7.45;;;0.50;99.90;;;;;;5100656;28;20087;-43
2024/01/17 10:56:20;;;;;;;11.90;7.72;;;0.50;99.90;;;;;;5101173;28;20295;-43
2024/01/17 10:58:51;;;;;;;10.02;7.45;;;0.50;99.90;;;;;;5100875;28;20026;-44
2024/01/17 11:01:24;;;;;;;10.88;7.40;;;0.60;99.90;;;;;;5101446;28;20054;-44
2024/01/17 11:03:53;;;;;;;12.77;6.95;;;0.60;99.90;;;;;;5101242;28;20030;-45
2024/01/17 11:06:20;;;;;;;8.57;6.38;;;0.60;99.90;;;;;;5100328;28;20051;-44
2024/01/17 11:08:47;;;;;;;8.50;5.90;;;0.70;99.90;;;;;;5100918;28;20058;-44
2024/01/17 11:11:15;;;;;;;8.45;6.30;;;0.70;99.90;;;;;;5099604;28;20016;-44
2024/01/17 11:13:43;;;;;;;10.40;6.95;;;0.70;99.90;;;;;;5081215;28;20110;-44
2024/01/17 11:16:11;;;;;;;10.90;7.07;;;0.70;99.90;;;;;;5094666;28;20566;-44
2024/01/17 11:18:40;;;;;;;8.45;6.63;;;0.70;99.90;;;;;;5100298;28;20027;-43
2024/01/17 11:21:07;;;;;;;13.00;8.43;;;0.80;99.90;;;;;;5099950;28;20020;-44
2024/01/17 11:24:23;;;;;;;11.13;8.10;;;0.80;99.90;;;;;;5099989;28;20039;-44
2024/01/17 11:26:59;;;;;;;12.90;8.50;;;0.80;99.90;;;;;;5016385;28;20029;-43
2024/01/17 11:30:09;;;;;;;13.38;7.40;;;0.80;99.90;;;;;;5098046;28;20043;-45
2024/01/17 11:32:53;;;;;;;14.93;8.73;;;0.80;99.90;;;;;;4988566;28;20045;-45
2024/01/17 11:35:42;;;;;;;13.13;8.63;;;0.80;99.90;;;;;;4978654;28;20482;-45
2024/01/17 11:38:13;;;;;;;12.40;9.05;;;0.80;99.90;;;;;;5071256;28;20116;-43
2024/01/17 11:40:40;;;;;;;12.27;8.98;;;0.80;99.90;;;;;;5099785;28;20553;-44
2024/01/17 11:43:09;;;;;;;11.77;8.18;;;0.90;99.90;;;;;;5100156;28;20011;-45
2024/01/17 11:45:36;;;;;;;9.48;7.13;;;0.90;99.90;;;;;;5100914;28;20019;-45
2024/01/17 11:48:26;;;;;;;11.27;7.88;;;0.90;99.90;;;;;;5099833;28;20034;-45
2024/01/17 11:50:58;;;;;;;8.15;6.28;;;0.90;99.90;;;;;;5100155;28;20074;-44
2024/01/17 11:53:26;;;;;;;10.90;6.93;;;0.90;99.90;;;;;;5100592;28;20028;-44
2024/01/17 11:55:51;;;;;;;9.18;6.78;;;0.90;99.90;;;;;;5100516;28;20032;-45
2024/01/17 11:58:17;;;;;;;9.75;7.07;;;0.90;99.90;;;;;;5099441;28;20094;-47
2024/01/17 12:00:43;;;;;;;8.90;6.20;;;0.90;99.90;;;;;;5099960;28;20059;-43
2024/01/17 12:03:10;;;;;;;8.68;6.03;;;1.00;99.90;;;;;;5099645;28;20030;-42
2024/01/17 12:05:36;;;;;;;10.93;7.25;;;1.00;99.90;;;;;;5100201;28;20032;-43
2024/01/17 12:08:05;;;;;;;11.98;7.80;;;1.00;99.90;;;;;;5098683;28;20030;-43
2024/01/17 12:10:31;;;;;;;9.68;6.97;;;1.00;99.90;;;;;;5100474;28;20043;-44
2024/01/17 12:12:58;;;;;;;9.38;6.75;;;1.10;99.90;;;;;;5099255;28;20046;-44
2024/01/17 12:15:24;;;;;;;9.15;6.50;;;1.10;99.90;;;;;;5098441;28;20032;-45
2024/01/17 12:17:50;;;;;;;7.10;5.53;;;1.10;99.90;;;;;;5098028;28;20413;-44
2024/01/17 12:20:26;;;;;;;9.35;6.90;;;1.10;99.90;;;;;;5098490;28;20059;-44
2024/01/17 12:22:52;;;;;;;10.95;7.05;;;1.10;99.90;;;;;;5097301;28;20035;-43
2024/01/17 12:25:18;;;;;;;11.10;8.05;;;1.20;99.90;;;;;;5097595;28;20039;-48
2024/01/17 12:27:54;;;;;;;11.82;8.32;;;1.20;99.90;;;;;;5098312;28;20031;-44
2024/01/17 12:30:19;;;;;;;13.15;8.70;;;1.20;99.90;;;;;;5098508;28;20554;-43
2024/01/17 12:32:46;;;;;;;11.05;7.95;;;1.20;99.90;;;;;;5099970;28;20020;-43
2024/01/17 12:35:12;;;;;;;10.13;7.35;;;1.30;99.90;;;;;;5100715;28;20112;-44
2024/01/17 12:37:38;;;;;;;12.10;7.25;;;1.30;99.90;;;;;;5098161;28;20024;-44
2024/01/17 12:40:04;;;;;;;10.57;7.45;;;1.30;99.90;;;;;;5099182;28;20035;-44
2024/01/17 12:42:33;;;;;;;9.95;7.18;;;1.30;99.90;;;;;;5099913;28;20212;-44
2024/01/17 12:44:59;;;;;;;11.05;7.43;;;1.40;99.90;;;;;;5098786;28;20150;-43